createdAt,value
2019-03-31T00:00:18.030Z,31.52
2019-03-31T00:03:16.217Z,32.03
2019-03-31T00:06:13.984Z,33.00
2019-03-31T00:09:11.361Z,27.70
2019-03-31T00:12:08.255Z,27.93
2019-03-31T00:15:07.442Z,37.25
2019-03-31T00:18:04.881Z,27.17
2019-03-31T00:21:02.008Z,29.45
2019-03-31T00:23:59.122Z,30.35
2019-03-31T00:26:56.745Z,28.07
2019-03-31T00:29:54.432Z,29.60
2019-03-31T00:32:51.902Z,32.03
2019-03-31T00:35:49.475Z,28.80
2019-03-31T00:38:46.191Z,28.77
2019-03-31T00:41:43.085Z,29.32
2019-03-31T00:44:39.899Z,33.05
2019-03-31T00:47:37.363Z,27.00
2019-03-31T00:50:34.380Z,29.85
2019-03-31T00:53:31.306Z,29.18
2019-03-31T00:56:29.027Z,28.15
2019-03-31T00:59:26.365Z,30.35
2019-03-31T01:02:27.094Z,28.87
2019-03-31T01:05:23.725Z,31.05
2019-03-31T01:08:20.652Z,30.27
2019-03-31T01:11:28.005Z,31.48
2019-03-31T01:14:28.119Z,28.50
2019-03-31T01:17:26.757Z,27.62
2019-03-31T01:20:25.600Z,27.55
2019-03-31T01:23:22.494Z,32.42
2019-03-31T01:26:21.950Z,32.67
2019-03-31T01:29:19.874Z,30.30
2019-03-31T01:32:17.577Z,28.98
2019-03-31T01:35:15.220Z,29.63
2019-03-31T01:38:12.747Z,29.40
2019-03-31T01:41:10.871Z,28.35
2019-03-31T01:44:08.402Z,30.57
2019-03-31T01:47:06.728Z,33.02
2019-03-31T01:50:06.470Z,28.17
2019-03-31T01:53:03.328Z,28.20
2019-03-31T01:56:02.920Z,27.17
2019-03-31T01:59:00.834Z,29.35
2019-03-31T02:02:04.587Z,28.38
2019-03-31T02:04:57.264Z,29.35
2019-03-31T02:07:56.034Z,28.90
2019-03-31T02:10:53.514Z,27.98
2019-03-31T02:13:51.184Z,30.25
2019-03-31T02:16:48.800Z,28.27
2019-03-31T02:19:46.244Z,30.08
2019-03-31T02:22:42.849Z,28.92
2019-03-31T02:25:40.402Z,27.80
2019-03-31T02:28:37.229Z,27.05
2019-03-31T02:31:34.919Z,31.62
2019-03-31T02:34:32.327Z,30.40
2019-03-31T02:37:28.623Z,30.02
2019-03-31T02:40:25.307Z,29.42
2019-03-31T02:43:22.880Z,27.77
2019-03-31T02:46:19.932Z,29.32
2019-03-31T02:49:17.005Z,27.93
2019-03-31T02:52:14.539Z,27.45
2019-03-31T02:55:11.891Z,29.45
2019-03-31T02:58:10.319Z,29.75
2019-03-31T03:01:07.775Z,29.45
2019-03-31T03:04:08.105Z,28.95
2019-03-31T03:07:07.263Z,28.65
2019-03-31T03:10:06.219Z,30.55
2019-03-31T03:13:05.215Z,29.57
2019-03-31T03:16:18.073Z,27.77
2019-03-31T03:19:15.627Z,26.05
2019-03-31T03:22:13.312Z,27.00
2019-03-31T03:25:10.030Z,29.02
2019-03-31T03:28:07.926Z,29.20
2019-03-31T03:31:04.823Z,30.95
2019-03-31T03:34:02.182Z,28.05
2019-03-31T03:36:58.785Z,24.50
2019-03-31T03:39:56.371Z,28.92
2019-03-31T03:42:53.073Z,30.10
2019-03-31T03:45:50.477Z,29.57
2019-03-31T03:48:48.186Z,27.35
2019-03-31T03:51:45.636Z,27.60
2019-03-31T03:54:42.683Z,33.35
2019-03-31T03:57:39.767Z,26.90
2019-03-31T04:00:37.521Z,27.85
2019-03-31T04:03:36.103Z,29.98
2019-03-31T04:06:32.799Z,30.77
2019-03-31T04:09:29.525Z,27.32
2019-03-31T04:12:26.289Z,30.88
2019-03-31T04:15:25.927Z,29.42
2019-03-31T04:18:23.609Z,27.87
2019-03-31T04:21:20.355Z,27.85
2019-03-31T04:24:17.436Z,28.17
2019-03-31T04:27:18.667Z,28.07
2019-03-31T04:30:12.640Z,31.33
2019-03-31T04:33:09.394Z,28.52
2019-03-31T04:36:06.549Z,27.75
2019-03-31T04:39:05.728Z,29.98
2019-03-31T04:42:02.685Z,27.07
2019-03-31T04:45:00.395Z,29.95
2019-03-31T04:47:59.257Z,26.25
2019-03-31T04:50:56.932Z,29.72
2019-03-31T04:53:54.563Z,29.10
2019-03-31T04:56:51.816Z,34.08
2019-03-31T04:59:49.109Z,30.37
2019-03-31T05:02:45.946Z,31.77
2019-03-31T05:05:43.258Z,29.90
2019-03-31T05:08:41.501Z,30.70
2019-03-31T05:11:40.101Z,28.80
2019-03-31T05:14:37.685Z,32.00
2019-03-31T05:17:35.927Z,31.40
2019-03-31T05:20:33.706Z,30.82
2019-03-31T05:23:30.619Z,30.45
2019-03-31T05:26:28.398Z,28.70
2019-03-31T05:29:24.849Z,27.07
2019-03-31T05:32:21.804Z,29.00
2019-03-31T05:35:21.592Z,28.30
2019-03-31T05:38:19.278Z,27.58
2019-03-31T05:41:19.032Z,29.42
2019-03-31T05:44:15.737Z,29.95
2019-03-31T05:47:13.341Z,30.20
2019-03-31T05:50:12.038Z,28.02
2019-03-31T05:53:09.057Z,31.40
2019-03-31T05:56:06.775Z,25.60
2019-03-31T05:59:04.041Z,27.17
2019-03-31T06:02:01.525Z,26.17
2019-03-31T06:04:58.185Z,28.20
2019-03-31T06:07:55.739Z,26.12
2019-03-31T06:10:52.092Z,26.23
2019-03-31T06:13:49.639Z,28.77
2019-03-31T06:16:47.195Z,31.50
2019-03-31T06:19:43.892Z,26.07
2019-03-31T06:22:40.482Z,29.95
2019-03-31T06:25:38.306Z,26.68
2019-03-31T06:28:35.695Z,27.42
2019-03-31T06:31:33.355Z,25.75
2019-03-31T06:34:30.435Z,31.68
2019-03-31T06:37:28.506Z,29.95
2019-03-31T06:40:25.111Z,27.00
2019-03-31T06:43:22.029Z,30.92
2019-03-31T06:46:18.470Z,28.70
2019-03-31T06:49:16.405Z,25.95
2019-03-31T06:52:14.075Z,29.25
2019-03-31T06:55:11.148Z,35.57
2019-03-31T06:58:08.257Z,28.67
2019-03-31T07:01:04.777Z,27.17
2019-03-31T07:04:01.998Z,29.43
2019-03-31T07:07:00.719Z,27.60
2019-03-31T07:09:56.948Z,27.17
2019-03-31T07:12:53.986Z,25.13
2019-03-31T07:15:51.127Z,28.30
2019-03-31T07:18:50.545Z,28.67
2019-03-31T07:21:47.672Z,26.23
2019-03-31T07:24:43.822Z,26.60
2019-03-31T07:27:40.194Z,23.13
2019-03-31T07:30:36.649Z,24.30
2019-03-31T07:33:34.074Z,24.47
2019-03-31T07:36:31.332Z,24.70
2019-03-31T07:39:29.510Z,30.03
2019-03-31T07:42:28.512Z,28.37
2019-03-31T07:45:25.720Z,25.03
2019-03-31T07:48:27.426Z,27.70
2019-03-31T07:51:24.681Z,27.47
2019-03-31T07:54:22.266Z,30.30
2019-03-31T07:57:18.826Z,30.33
2019-03-31T08:00:20.088Z,28.60
2019-03-31T08:03:16.285Z,30.67
2019-03-31T08:06:13.628Z,33.60
2019-03-31T08:09:10.077Z,29.43
2019-03-31T08:12:07.155Z,34.23
2019-03-31T08:15:04.747Z,36.50
2019-03-31T08:18:01.958Z,35.77
2019-03-31T08:20:58.774Z,37.07
2019-03-31T08:23:57.391Z,36.33
2019-03-31T08:26:56.911Z,40.07
2019-03-31T08:30:00.383Z,38.63
2019-03-31T08:32:51.540Z,41.43
2019-03-31T08:35:49.077Z,42.27
2019-03-31T08:38:45.768Z,41.60
2019-03-31T08:41:42.934Z,36.80
2019-03-31T08:44:39.983Z,41.90
2019-03-31T08:47:37.324Z,36.93
2019-03-31T08:50:34.946Z,37.13
2019-03-31T08:53:32.802Z,34.70
2019-03-31T08:56:29.502Z,37.90
2019-03-31T08:59:26.057Z,35.77
2019-03-31T09:02:27.457Z,38.60
2019-03-31T09:05:24.646Z,44.30
2019-03-31T09:08:22.202Z,40.87
2019-03-31T09:11:21.475Z,41.67
2019-03-31T09:14:19.147Z,42.77
2019-03-31T09:17:15.296Z,40.13
2019-03-31T09:20:13.984Z,40.23
2019-03-31T09:23:11.292Z,42.60
2019-03-31T09:26:07.692Z,45.10
2019-03-31T09:29:03.742Z,43.17
2019-03-31T09:32:00.268Z,46.03
2019-03-31T09:34:57.981Z,46.47
2019-03-31T09:37:54.668Z,44.93
2019-03-31T09:40:53.057Z,48.83
2019-03-31T09:43:50.377Z,48.37
2019-03-31T09:46:48.184Z,52.00
2019-03-31T09:49:46.889Z,50.97
2019-03-31T09:52:43.402Z,52.77
2019-03-31T09:55:39.951Z,58.67
2019-03-31T09:58:36.316Z,56.87
2019-03-31T10:01:33.064Z,52.13
2019-03-31T10:04:30.464Z,52.77
2019-03-31T10:07:27.825Z,52.27
2019-03-31T10:10:34.780Z,54.57
2019-03-31T10:13:32.056Z,54.43
2019-03-31T10:16:28.594Z,51.50
2019-03-31T10:19:26.264Z,53.60
2019-03-31T10:22:23.362Z,54.53
2019-03-31T10:25:21.379Z,58.33
2019-03-31T10:28:18.057Z,52.50
2019-03-31T10:31:17.631Z,52.07
2019-03-31T10:34:15.030Z,52.07
2019-03-31T10:37:11.748Z,53.13
2019-03-31T10:40:09.803Z,46.53
2019-03-31T10:43:07.156Z,44.70
2019-03-31T10:46:04.387Z,48.37
2019-03-31T10:49:01.162Z,43.87
2019-03-31T10:51:58.768Z,47.63
2019-03-31T10:54:56.431Z,44.70
2019-03-31T10:57:55.874Z,51.13
2019-03-31T11:00:53.111Z,42.53
2019-03-31T11:03:50.861Z,43.47
2019-03-31T11:06:58.415Z,42.47
2019-03-31T11:09:45.763Z,45.60
2019-03-31T11:12:44.066Z,49.23
2019-03-31T11:15:40.875Z,51.60
2019-03-31T11:18:37.896Z,43.37
2019-03-31T11:21:50.020Z,49.07
2019-03-31T11:24:46.349Z,51.73
2019-03-31T11:27:47.312Z,49.97
2019-03-31T11:30:45.836Z,53.57
2019-03-31T11:33:43.465Z,46.37
2019-03-31T11:36:41.453Z,43.50
2019-03-31T11:39:39.917Z,54.07
2019-03-31T11:42:36.462Z,52.27
2019-03-31T11:45:35.339Z,51.07
2019-03-31T11:48:34.724Z,51.20
2019-03-31T11:51:31.037Z,47.90
2019-03-31T11:54:28.545Z,48.43
2019-03-31T11:57:26.014Z,50.33
2019-03-31T12:00:23.386Z,49.83
2019-03-31T12:03:22.134Z,41.60
2019-03-31T12:06:19.124Z,44.00
2019-03-31T12:09:16.145Z,43.50
2019-03-31T12:12:13.414Z,46.53
2019-03-31T12:15:11.397Z,47.27
2019-03-31T12:18:08.890Z,44.77
2019-03-31T12:21:05.584Z,45.97
2019-03-31T12:24:02.778Z,43.43
2019-03-31T12:26:59.707Z,46.43
2019-03-31T12:29:56.776Z,46.87
2019-03-31T12:32:53.069Z,42.33
2019-03-31T12:35:50.851Z,45.70
2019-03-31T12:38:48.136Z,45.07
2019-03-31T12:41:45.408Z,43.57
2019-03-31T12:44:42.884Z,45.07
2019-03-31T12:47:39.357Z,44.93
2019-03-31T12:50:35.693Z,42.73
2019-03-31T12:53:38.128Z,47.33
2019-03-31T12:56:35.647Z,47.57
2019-03-31T12:59:32.275Z,46.20
2019-03-31T13:02:28.508Z,46.10
2019-03-31T13:05:25.134Z,44.93
2019-03-31T13:08:22.858Z,41.53
2019-03-31T13:11:23.764Z,45.93
2019-03-31T13:14:21.958Z,47.87
2019-03-31T13:17:18.726Z,44.17
2019-03-31T13:20:17.758Z,46.90
2019-03-31T13:23:15.243Z,46.20
2019-03-31T13:26:13.448Z,45.53
2019-03-31T13:29:10.415Z,48.47
2019-03-31T13:32:07.734Z,48.43
2019-03-31T13:35:06.712Z,45.27
2019-03-31T13:38:10.921Z,49.70
2019-03-31T13:41:01.453Z,47.23
2019-03-31T13:43:59.991Z,47.70
2019-03-31T13:46:56.633Z,45.87
2019-03-31T13:49:53.538Z,41.83
2019-03-31T13:52:51.777Z,44.60
2019-03-31T13:55:48.656Z,43.30
2019-03-31T13:58:52.569Z,47.03
2019-03-31T14:01:45.323Z,49.65
2019-03-31T14:04:51.349Z,44.42
2019-03-31T14:07:42.720Z,41.58
2019-03-31T14:10:40.324Z,44.38
2019-03-31T14:13:36.944Z,45.63
2019-03-31T14:16:33.294Z,40.57
2019-03-31T14:19:30.139Z,40.80
2019-03-31T14:22:30.108Z,40.50
2019-03-31T14:25:27.314Z,32.97
2019-03-31T14:28:24.694Z,34.93
2019-03-31T14:31:22.091Z,31.23
2019-03-31T14:34:18.624Z,35.83
2019-03-31T14:37:16.442Z,32.40
2019-03-31T14:40:14.917Z,32.80
2019-03-31T14:43:12.394Z,36.58
2019-03-31T14:46:09.857Z,34.60
2019-03-31T14:49:06.582Z,32.20
2019-03-31T14:52:04.429Z,32.80
2019-03-31T14:55:02.327Z,39.50
2019-03-31T14:57:59.086Z,33.40
2019-03-31T15:00:56.171Z,36.70
2019-03-31T15:03:54.868Z,38.38
2019-03-31T15:06:52.317Z,37.83
2019-03-31T15:09:49.657Z,35.43
2019-03-31T15:12:46.279Z,33.33
2019-03-31T15:15:43.312Z,36.35
2019-03-31T15:18:40.304Z,34.67
2019-03-31T15:21:44.142Z,36.55
2019-03-31T15:24:35.295Z,30.68
2019-03-31T15:27:31.910Z,36.48
2019-03-31T15:30:29.247Z,33.47
2019-03-31T15:33:26.903Z,37.48
2019-03-31T15:36:23.756Z,32.08
2019-03-31T15:39:21.078Z,36.20
2019-03-31T15:42:17.712Z,35.25
2019-03-31T15:45:15.560Z,32.13
2019-03-31T15:48:14.451Z,34.98
2019-03-31T15:51:12.190Z,30.15
2019-03-31T15:54:08.863Z,25.62
2019-03-31T15:57:05.322Z,22.70
2019-03-31T16:00:02.298Z,20.57
2019-03-31T16:02:59.760Z,18.48
2019-03-31T16:05:56.541Z,19.87
2019-03-31T16:08:53.896Z,17.02
2019-03-31T16:11:54.012Z,18.95
2019-03-31T16:14:47.614Z,17.20
2019-03-31T16:17:44.407Z,14.87
2019-03-31T16:20:43.222Z,18.65
2019-03-31T16:23:38.812Z,13.90
2019-03-31T16:26:35.565Z,17.45
2019-03-31T16:29:31.934Z,16.10
2019-03-31T16:32:29.665Z,17.17
2019-03-31T16:35:28.885Z,14.20
2019-03-31T16:38:26.555Z,12.05
2019-03-31T16:41:23.297Z,11.28
2019-03-31T16:44:20.227Z,17.75
2019-03-31T16:47:17.210Z,11.08
2019-03-31T16:50:14.566Z,11.28
2019-03-31T16:53:10.976Z,12.70
2019-03-31T16:56:07.891Z,12.03
2019-03-31T16:59:04.554Z,12.05
2019-03-31T17:02:01.226Z,11.65
2019-03-31T17:04:57.307Z,12.50
2019-03-31T17:07:55.190Z,9.00
2019-03-31T17:10:52.199Z,10.78
2019-03-31T17:13:49.443Z,9.88
2019-03-31T17:16:45.571Z,10.88
2019-03-31T17:19:42.712Z,9.58
2019-03-31T17:22:38.656Z,10.25
2019-03-31T17:25:34.512Z,9.00
2019-03-31T17:28:31.608Z,12.60
2019-03-31T17:31:29.410Z,9.35
2019-03-31T17:34:25.923Z,8.95
2019-03-31T17:37:21.927Z,10.15
2019-03-31T17:40:18.676Z,8.18
2019-03-31T17:43:15.028Z,8.18
2019-03-31T17:46:15.334Z,10.20
2019-03-31T17:49:11.500Z,7.72
2019-03-31T17:52:07.011Z,11.80
2019-03-31T17:55:04.592Z,7.53
2019-03-31T17:58:01.293Z,8.13
2019-03-31T18:00:57.517Z,7.58
2019-03-31T18:03:53.265Z,8.18
2019-03-31T18:06:48.755Z,6.58
2019-03-31T18:09:46.110Z,7.60
2019-03-31T18:12:42.115Z,6.72
2019-03-31T18:15:38.230Z,6.70
2019-03-31T18:18:34.383Z,7.62
2019-03-31T18:21:30.922Z,7.62
2019-03-31T18:24:27.734Z,7.85
2019-03-31T18:27:24.711Z,9.78
2019-03-31T18:30:21.690Z,7.75
2019-03-31T18:33:18.167Z,9.10
2019-03-31T18:36:16.345Z,9.10
2019-03-31T18:39:13.110Z,8.83
2019-03-31T18:42:09.296Z,9.60
2019-03-31T18:45:06.620Z,9.70
2019-03-31T18:48:03.188Z,7.55
2019-03-31T18:50:59.841Z,9.43
2019-03-31T18:54:21.753Z,7.97
2019-03-31T18:57:28.145Z,9.15
2019-03-31T19:00:44.231Z,9.63
2019-03-31T19:03:52.148Z,10.65
2019-03-31T19:06:55.824Z,9.75
2019-03-31T19:10:00.409Z,9.38
2019-03-31T19:13:11.110Z,10.45
2019-03-31T19:16:32.648Z,9.15
2019-03-31T19:19:36.247Z,11.73
2019-03-31T19:22:51.689Z,8.08
2019-03-31T19:25:58.876Z,11.85
2019-03-31T19:29:04.714Z,14.47
2019-03-31T19:32:16.110Z,12.35
2019-03-31T19:35:39.038Z,13.05
2019-03-31T19:38:46.338Z,10.63
2019-03-31T19:42:12.020Z,10.40
2019-03-31T19:45:35.007Z,9.38
2019-03-31T19:48:41.843Z,14.53
2019-03-31T19:51:56.214Z,16.15
2019-03-31T19:55:11.882Z,14.30
2019-03-31T19:58:18.756Z,15.03
2019-03-31T20:01:34.337Z,11.38
2019-03-31T20:04:53.264Z,11.85
2019-03-31T20:08:11.389Z,12.28
2019-03-31T20:11:12.931Z,9.90
2019-03-31T20:14:30.463Z,10.38
2019-03-31T20:17:33.401Z,13.10
2019-03-31T20:20:41.147Z,12.03
2019-03-31T20:24:05.103Z,11.00
2019-03-31T20:27:10.999Z,12.47
2019-03-31T20:30:33.210Z,9.33
2019-03-31T20:33:52.479Z,9.53
2019-03-31T20:37:06.626Z,9.35
2019-03-31T20:40:25.186Z,13.98
2019-03-31T20:43:37.087Z,12.37
2019-03-31T20:46:33.920Z,9.40
2019-03-31T20:49:30.767Z,11.00
2019-03-31T20:52:26.716Z,11.93
2019-03-31T20:55:23.846Z,13.90
2019-03-31T20:58:20.407Z,11.80
2019-03-31T21:01:16.530Z,11.10
2019-03-31T21:04:13.138Z,14.55
2019-03-31T21:07:11.468Z,10.60
2019-03-31T21:10:08.373Z,12.25
2019-03-31T21:13:04.314Z,10.95
2019-03-31T21:16:00.183Z,11.00
2019-03-31T21:18:56.921Z,9.90
2019-03-31T21:21:53.766Z,11.70
2019-03-31T21:24:50.315Z,10.15
2019-03-31T21:27:46.619Z,9.40
2019-03-31T21:30:45.117Z,11.33
2019-03-31T21:33:42.166Z,9.18
2019-03-31T21:36:38.939Z,10.15
2019-03-31T21:39:34.970Z,11.53
2019-03-31T21:42:30.826Z,9.43
2019-03-31T21:45:27.916Z,9.60
2019-03-31T21:48:24.565Z,9.35
2019-03-31T21:51:21.161Z,11.12
2019-03-31T21:54:17.890Z,10.82
2019-03-31T21:57:16.299Z,10.45
2019-03-31T22:00:12.886Z,9.88
2019-03-31T22:03:10.268Z,7.58
2019-03-31T22:06:07.007Z,13.00
2019-03-31T22:09:08.155Z,10.50
2019-03-31T22:12:04.758Z,11.30
2019-03-31T22:15:01.014Z,10.10
2019-03-31T22:17:57.531Z,9.58
2019-03-31T22:20:54.391Z,11.05
2019-03-31T22:23:57.677Z,8.23
2019-03-31T22:26:47.872Z,10.88
2019-03-31T22:29:44.620Z,11.68
2019-03-31T22:32:41.680Z,8.95
2019-03-31T22:35:38.239Z,11.50
2019-03-31T22:38:34.708Z,11.73
2019-03-31T22:41:31.688Z,12.20
2019-03-31T22:44:28.263Z,8.05
2019-03-31T22:47:24.168Z,10.72
2019-03-31T22:50:20.401Z,7.62
2019-03-31T22:53:15.920Z,8.70
2019-03-31T22:56:12.026Z,10.88
2019-03-31T22:59:09.922Z,9.68
2019-03-31T23:02:06.696Z,11.60
2019-03-31T23:05:03.582Z,8.90
2019-03-31T23:08:00.354Z,8.03
2019-03-31T23:10:57.470Z,10.28
2019-03-31T23:13:54.448Z,9.78
2019-03-31T23:16:51.363Z,9.43
2019-03-31T23:19:48.431Z,9.13
2019-03-31T23:22:45.458Z,11.28
2019-03-31T23:25:41.231Z,9.03
2019-03-31T23:28:46.561Z,7.80
2019-03-31T23:31:43.223Z,8.53
2019-03-31T23:34:39.555Z,9.50
2019-03-31T23:37:37.778Z,7.33
2019-03-31T23:40:34.338Z,8.00
2019-03-31T23:43:31.301Z,7.28
2019-03-31T23:46:28.148Z,9.50
2019-03-31T23:49:24.806Z,7.80
2019-03-31T23:52:20.981Z,6.80
2019-03-31T23:55:17.035Z,7.80
2019-03-31T23:58:12.881Z,14.15
